Time;durP1;ratioP1;P1;durP2;ratioP2;P2;SDS_P1;SDS_P2;PMS_P1;PMS_P2;Temp;Humidity;BMP_temperature;BMP_pressure;BME280_temperature;BME280_humidity;BME280_pressure;Samples;Min_cycle;Max_cycle;Signal;HPM_P1;HPM_P2
2023/09/16 00:00:47;;;;;;;6.43;6.03;;;26.70;68.30;;;;;;5113294;28;20463;-75
2023/09/16 00:03:15;;;;;;;7.57;7.03;;;26.70;68.30;;;;;;5114775;27;20425;-75
2023/09/16 00:05:43;;;;;;;6.80;6.30;;;26.70;68.30;;;;;;5119846;27;20459;-79
2023/09/16 00:08:11;;;;;;;6.63;6.13;;;26.70;68.20;;;;;;5113030;28;20483;-75
2023/09/16 00:10:42;;;;;;;6.50;6.00;;;26.70;68.20;;;;;;5116563;27;20455;-75
2023/09/16 00:13:10;;;;;;;6.50;6.00;;;26.70;68.20;;;;;;5114609;27;20443;-75
2023/09/16 00:15:38;;;;;;;6.33;5.83;;;26.70;68.20;;;;;;5113571;28;20504;-74
2023/09/16 00:18:07;;;;;;;6.67;6.17;;;26.70;68.20;;;;;;5113247;28;20435;-75
2023/09/16 00:20:36;;;;;;;6.47;5.97;;;26.70;68.20;;;;;;5123094;27;20483;-78
2023/09/16 00:23:07;;;;;;;9.23;6.80;;;26.70;68.20;;;;;;5134039;27;20767;-75
2023/09/16 00:25:35;;;;;;;6.43;5.93;;;26.70;68.10;;;;;;5097260;28;20521;-75
2023/09/16 00:28:06;;;;;;;6.23;5.80;;;26.60;68.20;;;;;;5114855;27;20567;-79
2023/09/16 00:30:35;;;;;;;5.80;5.40;;;26.60;68.20;;;;;;5096663;28;20516;-75
2023/09/16 00:33:04;;;;;;;7.20;6.70;;;26.60;68.20;;;;;;5112924;28;20481;-78
2023/09/16 00:35:32;;;;;;;6.60;6.10;;;26.60;68.20;;;;;;5109469;28;20455;-76
2023/09/16 00:38:00;;;;;;;6.03;5.63;;;26.60;68.20;;;;;;5122070;27;20500;-75
2023/09/16 00:40:29;;;;;;;6.53;5.93;;;26.60;68.10;;;;;;5112801;28;20431;-74
2023/09/16 00:42:57;;;;;;;7.30;6.60;;;26.60;68.20;;;;;;5112352;28;20454;-75
2023/09/16 00:45:27;;;;;;;6.63;6.13;;;26.60;68.20;;;;;;5102580;27;20473;-78
2023/09/16 00:47:57;;;;;;;6.17;5.67;;;26.60;68.20;;;;;;5126635;27;20439;-75
2023/09/16 00:50:26;;;;;;;6.33;5.83;;;26.60;68.10;;;;;;5094904;28;20953;-76
2023/09/16 00:52:56;;;;;;;6.37;5.87;;;26.60;68.00;;;;;;5113377;27;20416;-75
2023/09/16 00:55:25;;;;;;;6.17;5.70;;;26.60;68.00;;;;;;5099290;28;20883;-75
2023/09/16 00:57:55;;;;;;;6.20;5.70;;;26.60;68.10;;;;;;5093773;28;20501;-75
2023/09/16 01:00:28;;;;;;;6.83;6.33;;;26.60;68.10;;;;;;5094330;28;20928;-75
2023/09/16 01:02:57;;;;;;;5.80;5.40;;;26.60;68.10;;;;;;5103830;28;20471;-75
2023/09/16 01:05:26;;;;;;;5.90;5.40;;;26.60;68.00;;;;;;5102300;28;20451;-75
2023/09/16 01:07:57;;;;;;;5.57;5.17;;;26.60;67.90;;;;;;5112380;28;20485;-75
2023/09/16 01:10:26;;;;;;;6.67;6.17;;;26.60;67.90;;;;;;5094012;28;20806;-77
2023/09/16 01:12:56;;;;;;;6.60;6.10;;;26.50;68.00;;;;;;5103364;28;20816;-75
2023/09/16 01:15:28;;;;;;;6.00;5.60;;;26.50;68.00;;;;;;5112364;28;20905;-75
2023/09/16 01:18:06;;;;;;;6.70;6.10;;;26.50;68.00;;;;;;5110761;28;20946;-74
2023/09/16 01:20:38;;;;;;;6.63;6.13;;;26.50;68.00;;;;;;5112122;28;20531;-75
2023/09/16 01:23:07;;;;;;;5.70;5.20;;;26.50;67.90;;;;;;5128263;27;20466;-74
2023/09/16 01:25:38;;;;;;;6.03;5.53;;;26.50;67.90;;;;;;5121063;27;20451;-75
2023/09/16 01:28:06;;;;;;;5.90;5.50;;;26.50;67.90;;;;;;5085350;28;20950;-74
2023/09/16 01:30:43;;;;;;;6.37;5.87;;;26.50;68.00;;;;;;5120866;27;20941;-75
2023/09/16 01:33:17;;;;;;;5.63;5.23;;;26.50;67.90;;;;;;5112079;28;20438;-74
2023/09/16 01:35:48;;;;;;;6.77;6.20;;;26.50;67.90;;;;;;5094011;28;20529;-74
2023/09/16 01:38:20;;;;;;;6.07;5.57;;;26.50;67.80;;;;;;5109822;27;20508;-76
2023/09/16 01:40:55;;;;;;;6.23;5.60;;;26.50;67.80;;;;;;5116374;27;20476;-74
2023/09/16 01:43:24;;;;;;;6.23;5.83;;;26.50;67.90;;;;;;5092522;28;20478;-78
2023/09/16 01:45:53;;;;;;;5.90;5.50;;;26.50;67.70;;;;;;5111930;28;20458;-75
2023/09/16 01:48:22;;;;;;;5.60;5.10;;;26.50;67.40;;;;;;5120303;28;20495;-75
2023/09/16 01:51:04;;;;;;;6.30;5.80;;;26.40;67.50;;;;;;5093609;28;20481;-78
2023/09/16 01:53:32;;;;;;;5.70;5.30;;;26.40;67.70;;;;;;5093317;28;20459;-75
2023/09/16 01:56:01;;;;;;;6.70;6.20;;;26.40;67.70;;;;;;5082938;28;20447;-74
2023/09/16 01:58:31;;;;;;;6.57;6.07;;;26.40;67.70;;;;;;5083012;28;21033;-75
2023/09/16 02:00:59;;;;;;;6.30;5.80;;;26.40;67.70;;;;;;5093322;28;20448;-75
2023/09/16 02:03:27;;;;;;;6.10;5.70;;;26.40;67.70;;;;;;5115663;28;20457;-75
2023/09/16 02:05:56;;;;;;;6.20;5.70;;;26.40;67.60;;;;;;5101268;28;20940;-76
2023/09/16 02:08:24;;;;;;;5.63;5.23;;;26.40;67.70;;;;;;5100770;28;20458;-78
2023/09/16 02:10:52;;;;;;;5.30;4.90;;;26.40;67.70;;;;;;5115146;28;20447;-75
2023/09/16 02:13:22;;;;;;;5.70;5.33;;;26.40;67.60;;;;;;5128444;28;20474;-75
2023/09/16 02:15:50;;;;;;;6.17;5.67;;;26.40;67.60;;;;;;5130178;28;20441;-74
2023/09/16 02:18:18;;;;;;;8.40;5.70;;;26.40;67.60;;;;;;5105611;28;20473;-74
2023/09/16 02:20:47;;;;;;;5.70;5.30;;;26.40;67.60;;;;;;5092820;28;20474;-75
2023/09/16 02:23:15;;;;;;;5.77;5.37;;;26.40;67.60;;;;;;5127701;28;20506;-75
2023/09/16 02:25:43;;;;;;;6.30;5.80;;;26.30;67.50;;;;;;5096788;28;21084;-80
2023/09/16 02:28:11;;;;;;;5.10;4.80;;;26.30;67.60;;;;;;5110654;28;20694;-74
2023/09/16 02:30:41;;;;;;;5.60;5.23;;;26.30;67.50;;;;;;5114818;28;20476;-75
2023/09/16 02:33:09;;;;;;;5.57;5.17;;;26.30;67.60;;;;;;5113805;28;20787;-75
2023/09/16 02:35:40;;;;;;;4.33;4.03;;;26.30;67.60;;;;;;5127947;28;20419;-75
2023/09/16 02:38:09;;;;;;;6.10;5.70;;;26.30;67.50;;;;;;5092370;28;20463;-75
2023/09/16 02:40:40;;;;;;;5.10;4.70;;;26.30;67.60;;;;;;5114165;28;20446;-74
2023/09/16 02:43:09;;;;;;;5.00;4.60;;;26.30;67.50;;;;;;5092048;28;20477;-74
2023/09/16 02:45:42;;;;;;;5.40;5.00;;;26.30;67.50;;;;;;5111270;28;20423;-74
2023/09/16 02:48:11;;;;;;;5.47;4.97;;;26.30;67.50;;;;;;5126873;28;20494;-75
2023/09/16 02:50:40;;;;;;;5.40;5.00;;;26.30;67.50;;;;;;5113774;28;20443;-74
2023/09/16 02:53:08;;;;;;;5.33;4.93;;;26.30;67.50;;;;;;5093703;28;20442;-74
2023/09/16 02:55:36;;;;;;;5.70;5.30;;;26.30;67.40;;;;;;5117081;27;20451;-74
2023/09/16 02:58:05;;;;;;;5.93;5.53;;;26.30;67.40;;;;;;5114087;28;20431;-78
2023/09/16 03:00:34;;;;;;;5.07;4.77;;;26.30;67.10;;;;;;5096428;28;20816;-77
2023/09/16 03:03:04;;;;;;;5.60;5.10;;;26.30;67.10;;;;;;5096614;27;20554;-74
2023/09/16 03:05:33;;;;;;;4.87;4.50;;;26.30;67.30;;;;;;5095663;28;20456;-77
2023/09/16 03:08:02;;;;;;;4.87;4.57;;;26.20;67.40;;;;;;5114460;28;20424;-74
2023/09/16 03:10:33;;;;;;;5.47;4.97;;;26.20;67.40;;;;;;5114441;28;20451;-74
2023/09/16 03:13:02;;;;;;;5.27;4.87;;;26.20;67.40;;;;;;5101709;28;20497;-74
2023/09/16 03:15:30;;;;;;;4.90;4.60;;;26.20;67.40;;;;;;5118104;27;20454;-75
2023/09/16 03:17:59;;;;;;;4.90;4.60;;;26.20;67.40;;;;;;5096811;28;20455;-75
2023/09/16 03:20:41;;;;;;;4.80;4.43;;;26.20;67.40;;;;;;5095814;28;20483;-75
2023/09/16 03:23:12;;;;;;;4.90;4.60;;;26.20;67.10;;;;;;5127071;27;20506;-75
2023/09/16 03:25:40;;;;;;;4.37;4.07;;;26.20;67.00;;;;;;5096536;28;20467;-75
2023/09/16 03:28:09;;;;;;;5.00;4.70;;;26.20;67.30;;;;;;5114492;27;20453;-75
2023/09/16 03:30:38;;;;;;;4.23;3.93;;;26.20;66.60;;;;;;5100357;28;20942;-75
2023/09/16 03:33:08;;;;;;;5.63;5.20;;;26.20;67.20;;;;;;5115480;27;20540;-78
2023/09/16 03:35:38;;;;;;;4.87;4.57;;;26.20;67.30;;;;;;5075500;28;20970;-75
2023/09/16 03:38:08;;;;;;;4.60;4.30;;;26.20;67.40;;;;;;5075766;28;20433;-77
2023/09/16 03:40:36;;;;;;;4.63;4.33;;;26.20;67.30;;;;;;5090239;28;20573;-74
2023/09/16 03:43:05;;;;;;;4.70;4.40;;;26.20;67.30;;;;;;5094399;28;20473;-78
2023/09/16 03:45:33;;;;;;;4.57;4.27;;;26.10;67.40;;;;;;5095489;28;20454;-78
2023/09/16 03:48:02;;;;;;;4.50;4.20;;;26.10;67.40;;;;;;5098092;27;20489;-75
2023/09/16 03:50:33;;;;;;;5.27;4.77;;;26.10;67.40;;;;;;5115103;27;20445;-75
2023/09/16 03:53:02;;;;;;;5.03;4.60;;;26.10;67.40;;;;;;5116430;27;20453;-75
2023/09/16 03:55:40;;;;;;;4.80;4.50;;;26.10;67.30;;;;;;5098140;28;20442;-75
2023/09/16 03:58:08;;;;;;;4.93;4.53;;;26.10;67.30;;;;;;5109187;27;20448;-75
2023/09/16 04:00:37;;;;;;;4.83;4.50;;;26.10;67.40;;;;;;5079415;28;20451;-75
2023/09/16 04:03:05;;;;;;;5.20;4.80;;;26.10;67.20;;;;;;5075628;28;20497;-76
2023/09/16 04:05:34;;;;;;;5.37;4.97;;;26.10;67.40;;;;;;5107593;28;20915;-77
2023/09/16 04:08:02;;;;;;;4.37;4.00;;;26.10;67.40;;;;;;5120388;27;20460;-75
2023/09/16 04:10:30;;;;;;;5.30;4.90;;;26.10;67.30;;;;;;5113638;28;20425;-75
2023/09/16 04:13:00;;;;;;;4.80;4.40;;;26.10;67.30;;;;;;5112411;28;20495;-75
2023/09/16 04:15:28;;;;;;;4.93;4.53;;;26.10;67.30;;;;;;5123326;27;20528;-75
2023/09/16 04:17:56;;;;;;;4.70;4.40;;;26.10;67.30;;;;;;5126662;27;20450;-75
2023/09/16 04:20:25;;;;;;;5.10;4.80;;;26.10;67.30;;;;;;5113592;28;20467;-75
2023/09/16 04:22:53;;;;;;;5.40;5.00;;;26.10;67.40;;;;;;5097436;27;20475;-77
2023/09/16 04:25:22;;;;;;;4.80;4.50;;;26.10;67.30;;;;;;5100114;28;20454;-75
2023/09/16 04:27:51;;;;;;;5.60;5.20;;;26.10;67.10;;;;;;5093895;28;20459;-75
2023/09/16 04:30:20;;;;;;;5.17;4.77;;;26.10;67.20;;;;;;5110598;28;20795;-75
2023/09/16 04:32:49;;;;;;;5.03;4.73;;;26.10;67.20;;;;;;5085715;28;20463;-75
2023/09/16 04:35:17;;;;;;;4.93;4.60;;;26.10;67.30;;;;;;5098770;28;20450;-77
2023/09/16 04:37:46;;;;;;;5.20;4.70;;;26.10;67.40;;;;;;5086794;28;20508;-77
2023/09/16 04:40:15;;;;;;;5.50;5.10;;;26.10;67.30;;;;;;5091802;28;20468;-77
2023/09/16 04:42:44;;;;;;;5.40;5.00;;;26.10;67.30;;;;;;5110916;28;21481;-77
2023/09/16 04:45:15;;;;;;;5.57;5.17;;;26.10;67.40;;;;;;5094321;28;20455;-77
2023/09/16 04:47:45;;;;;;;4.70;4.40;;;26.10;67.40;;;;;;5093529;27;20463;-78
2023/09/16 04:50:13;;;;;;;4.50;4.20;;;26.10;67.40;;;;;;5092195;28;20545;-79
2023/09/16 04:52:41;;;;;;;5.20;4.80;;;26.00;67.40;;;;;;5109934;28;21058;-76
2023/09/16 04:55:10;;;;;;;4.80;4.40;;;26.10;67.40;;;;;;5093759;28;20450;-76
2023/09/16 04:57:39;;;;;;;5.40;5.03;;;26.00;67.40;;;;;;5098205;28;20475;-76
2023/09/16 05:00:08;;;;;;;4.77;4.47;;;26.00;67.50;;;;;;5092891;28;20442;-79
2023/09/16 05:02:36;;;;;;;4.97;4.50;;;26.00;67.40;;;;;;5094806;28;20455;-77
2023/09/16 05:05:07;;;;;;;4.33;4.03;;;26.00;67.40;;;;;;5099941;27;20504;-77
2023/09/16 05:07:35;;;;;;;4.60;4.23;;;26.00;67.40;;;;;;5124884;27;20444;-77
2023/09/16 05:10:04;;;;;;;5.50;5.10;;;26.00;67.50;;;;;;5093976;28;20835;-78
2023/09/16 05:12:32;;;;;;;4.47;4.10;;;26.00;67.40;;;;;;5118997;27;20487;-77
2023/09/16 05:15:00;;;;;;;5.00;4.60;;;26.00;67.40;;;;;;5113573;27;20454;-77
2023/09/16 05:17:28;;;;;;;5.10;4.70;;;26.00;67.40;;;;;;5106589;28;20453;-77
2023/09/16 05:19:57;;;;;;;5.10;4.70;;;26.00;67.30;;;;;;5093995;28;20452;-77
2023/09/16 05:22:26;;;;;;;4.50;4.20;;;26.00;67.10;;;;;;5112023;28;20428;-77
2023/09/16 05:24:55;;;;;;;5.47;5.07;;;26.00;67.30;;;;;;5101011;28;20478;-78
2023/09/16 05:27:23;;;;;;;4.47;4.17;;;26.00;67.30;;;;;;5110766;28;20526;-78
2023/09/16 05:29:54;;;;;;;5.00;4.60;;;26.00;67.40;;;;;;5093805;28;20814;-76
2023/09/16 05:32:22;;;;;;;4.63;4.23;;;26.00;67.40;;;;;;5119389;27;20443;-76
2023/09/16 05:34:53;;;;;;;4.10;3.90;;;26.00;67.50;;;;;;5093849;28;20930;-77
2023/09/16 05:37:21;;;;;;;5.20;4.80;;;26.00;67.40;;;;;;5093357;28;20455;-77
2023/09/16 05:39:50;;;;;;;4.07;3.83;;;26.00;67.00;;;;;;5121148;27;20455;-76
2023/09/16 05:42:19;;;;;;;4.20;3.90;;;26.00;67.10;;;;;;5100883;28;20973;-77
2023/09/16 05:44:47;;;;;;;4.53;4.13;;;26.00;67.00;;;;;;5111859;28;20474;-77
2023/09/16 05:47:17;;;;;;;4.27;3.97;;;26.00;67.30;;;;;;5093807;28;20533;-78
2023/09/16 05:49:45;;;;;;;4.70;4.30;;;26.00;67.20;;;;;;5097260;28;20464;-77
2023/09/16 05:52:14;;;;;;;4.70;4.30;;;26.00;67.20;;;;;;5093411;28;20534;-77
2023/09/16 05:54:43;;;;;;;4.40;4.00;;;26.00;67.40;;;;;;5093368;28;20454;-76
2023/09/16 05:57:13;;;;;;;4.47;4.17;;;26.00;67.50;;;;;;5098784;28;20604;-77
2023/09/16 05:59:41;;;;;;;4.77;4.37;;;25.90;67.30;;;;;;5095908;28;20477;-76
2023/09/16 06:02:10;;;;;;;4.90;4.60;;;26.00;67.50;;;;;;5111896;28;20438;-76
2023/09/16 06:04:38;;;;;;;4.37;4.07;;;26.00;67.60;;;;;;5111487;28;20464;-77
2023/09/16 06:07:06;;;;;;;5.00;4.60;;;26.00;67.60;;;;;;5093326;28;20933;-78
2023/09/16 06:09:35;;;;;;;4.73;4.33;;;26.00;67.50;;;;;;5111943;28;20450;-77
2023/09/16 06:12:03;;;;;;;4.97;4.57;;;26.00;67.50;;;;;;5092572;28;21021;-78
2023/09/16 06:14:33;;;;;;;4.63;4.23;;;26.00;67.50;;;;;;5100102;28;20444;-77
2023/09/16 06:17:02;;;;;;;4.90;4.60;;;26.00;67.40;;;;;;5094784;28;20539;-77
2023/09/16 06:19:31;;;;;;;4.40;4.10;;;26.00;67.50;;;;;;5092729;28;20462;-77
2023/09/16 06:21:59;;;;;;;5.03;4.63;;;26.00;67.30;;;;;;5087463;28;20567;-78
2023/09/16 06:24:28;;;;;;;4.67;4.27;;;26.00;67.50;;;;;;5091296;28;20468;-77
2023/09/16 06:26:58;;;;;;;4.50;4.20;;;26.00;67.50;;;;;;5095427;28;20520;-78
2023/09/16 06:29:28;;;;;;;4.40;4.10;;;26.00;67.50;;;;;;5114821;28;20541;-77
2023/09/16 06:31:57;;;;;;;4.47;4.07;;;26.00;67.40;;;;;;5117870;27;20463;-77
2023/09/16 06:34:26;;;;;;;4.97;4.67;;;26.00;67.50;;;;;;5102850;27;20462;-78
2023/09/16 06:36:54;;;;;;;4.50;4.20;;;26.00;67.50;;;;;;5087025;28;20455;-77
2023/09/16 06:39:23;;;;;;;4.80;4.50;;;26.00;67.40;;;;;;5089897;28;20481;-77
2023/09/16 06:41:52;;;;;;;4.50;4.20;;;26.00;67.40;;;;;;5106105;28;21341;-78
2023/09/16 06:44:20;;;;;;;3.90;3.70;;;26.00;67.40;;;;;;5104997;28;20459;-79
2023/09/16 06:46:48;;;;;;;4.23;4.03;;;26.00;67.50;;;;;;5094367;27;20486;-77
2023/09/16 06:49:18;;;;;;;4.50;4.10;;;26.00;67.40;;;;;;5112704;28;20454;-78
2023/09/16 06:51:46;;;;;;;4.23;3.67;;;26.10;67.50;;;;;;5112268;27;21207;-79
2023/09/16 06:54:15;;;;;;;4.80;4.30;;;26.10;67.50;;;;;;5115670;27;20449;-78
2023/09/16 06:56:43;;;;;;;4.73;4.37;;;26.10;67.40;;;;;;5111399;28;21020;-78
2023/09/16 06:59:11;;;;;;;4.83;4.30;;;26.10;67.50;;;;;;5091717;28;20861;-77
2023/09/16 07:01:39;;;;;;;4.53;4.23;;;26.10;67.40;;;;;;5113454;28;20471;-76
2023/09/16 07:04:08;;;;;;;4.20;3.90;;;26.10;67.40;;;;;;5109204;28;20503;-77
2023/09/16 07:06:38;;;;;;;4.07;3.77;;;26.10;67.50;;;;;;5093464;28;20784;-78
2023/09/16 07:09:06;;;;;;;4.70;4.40;;;26.10;67.50;;;;;;5115191;27;20447;-77
2023/09/16 07:11:34;;;;;;;3.80;3.60;;;26.10;67.50;;;;;;5114020;28;20894;-77
2023/09/16 07:14:03;;;;;;;6.20;4.00;;;26.10;67.50;;;;;;5111722;27;20930;-77
2023/09/16 07:16:40;;;;;;;4.43;4.13;;;26.10;67.50;;;;;;5123778;27;20966;-77
2023/09/16 07:19:08;;;;;;;4.70;4.30;;;26.10;67.50;;;;;;5101678;27;20541;-77
2023/09/16 07:21:38;;;;;;;5.00;3.90;;;26.10;67.50;;;;;;5102600;27;20602;-79
2023/09/16 07:24:07;;;;;;;4.60;4.30;;;26.10;67.50;;;;;;5101168;28;20814;-75
2023/09/16 07:26:35;;;;;;;6.83;3.83;;;26.20;67.50;;;;;;5102155;28;20486;-75
2023/09/16 07:29:03;;;;;;;4.13;3.83;;;26.20;67.50;;;;;;5109769;28;20865;-76
2023/09/16 07:31:32;;;;;;;4.80;4.50;;;26.20;67.50;;;;;;5104364;27;20462;-74
2023/09/16 07:34:00;;;;;;;4.77;4.47;;;26.20;67.50;;;;;;5105519;27;20450;-75
2023/09/16 07:36:28;;;;;;;3.73;3.43;;;26.20;67.50;;;;;;5108478;27;20533;-75
2023/09/16 07:38:58;;;;;;;5.87;4.30;;;26.20;67.50;;;;;;5107216;27;20462;-75
2023/09/16 07:41:26;;;;;;;3.93;3.63;;;26.20;67.50;;;;;;5108641;28;20459;-76
2023/09/16 07:43:55;;;;;;;4.47;4.17;;;26.20;67.50;;;;;;5111037;28;20445;-75
2023/09/16 07:46:23;;;;;;;4.67;4.37;;;26.20;67.50;;;;;;5111263;28;20841;-76
2023/09/16 07:48:51;;;;;;;4.33;4.03;;;26.20;67.50;;;;;;5115001;27;20527;-75
2023/09/16 07:51:20;;;;;;;4.80;4.50;;;26.20;67.50;;;;;;5108783;27;20458;-77
2023/09/16 07:53:48;;;;;;;3.90;3.70;;;26.20;67.50;;;;;;5109736;28;20459;-75
2023/09/16 07:56:18;;;;;;;4.17;3.87;;;26.30;67.50;;;;;;5109366;28;20445;-75
2023/09/16 07:58:46;;;;;;;3.90;3.60;;;26.30;67.50;;;;;;5119519;27;20449;-76
2023/09/16 08:01:15;;;;;;;5.80;4.37;;;26.30;67.50;;;;;;5132314;27;20885;-75
2023/09/16 08:03:43;;;;;;;5.53;5.10;;;26.30;67.50;;;;;;5112740;27;20472;-75
2023/09/16 08:06:13;;;;;;;4.07;3.77;;;26.30;67.50;;;;;;5099597;27;20468;-75
2023/09/16 08:08:41;;;;;;;3.67;3.47;;;26.30;67.50;;;;;;5100151;28;20442;-74
2023/09/16 08:11:09;;;;;;;4.27;3.87;;;26.30;67.50;;;;;;5109815;28;20991;-75
2023/09/16 08:13:39;;;;;;;3.83;3.63;;;26.30;67.50;;;;;;5111876;28;20440;-75
2023/09/16 08:16:07;;;;;;;4.60;4.10;;;26.30;67.40;;;;;;5113556;28;20424;-74
2023/09/16 08:18:35;;;;;;;3.97;3.67;;;26.30;67.40;;;;;;5115185;27;20446;-75
2023/09/16 08:21:03;;;;;;;4.43;4.13;;;26.30;67.50;;;;;;5113795;27;20487;-75
2023/09/16 08:23:32;;;;;;;4.50;4.20;;;26.30;67.50;;;;;;5113133;28;20427;-74
2023/09/16 08:26:00;;;;;;;5.20;4.90;;;26.30;67.50;;;;;;5104352;28;20466;-74
2023/09/16 08:28:28;;;;;;;4.00;3.80;;;26.30;67.50;;;;;;5123488;27;20519;-75
2023/09/16 08:30:58;;;;;;;4.60;4.30;;;26.30;67.50;;;;;;5133936;27;21352;-75
2023/09/16 08:33:26;;;;;;;3.90;3.60;;;26.30;67.50;;;;;;5117242;27;20942;-75
2023/09/16 08:35:54;;;;;;;3.90;3.60;;;26.30;67.50;;;;;;5120223;27;20447;-75
2023/09/16 08:38:23;;;;;;;4.20;3.90;;;26.30;67.50;;;;;;5114368;27;20441;-74
2023/09/16 08:40:59;;;;;;;4.70;4.30;;;26.30;67.50;;;;;;5113379;28;20824;-74
2023/09/16 08:43:34;;;;;;;4.53;4.13;;;26.30;67.50;;;;;;5111520;27;20456;-76
2023/09/16 08:46:09;;;;;;;4.20;3.37;;;26.30;67.50;;;;;;5109902;28;20872;-75
2023/09/16 08:48:43;;;;;;;4.30;4.00;;;26.40;67.50;;;;;;5112931;28;20437;-75
2023/09/16 08:51:15;;;;;;;3.97;3.67;;;26.30;67.50;;;;;;5108997;28;20538;-74
2023/09/16 08:53:44;;;;;;;3.83;3.60;;;26.40;67.50;;;;;;5091696;28;20459;-76
2023/09/16 08:56:13;;;;;;;4.30;3.90;;;26.40;67.50;;;;;;5097930;28;20453;-74
2023/09/16 08:58:42;;;;;;;4.30;4.00;;;26.40;67.40;;;;;;5109613;28;20440;-75
2023/09/16 09:01:17;;;;;;;4.33;4.03;;;26.40;67.40;;;;;;5094499;28;20601;-75
2023/09/16 09:03:45;;;;;;;3.70;3.50;;;26.40;67.50;;;;;;5111974;28;20455;-74
2023/09/16 09:06:14;;;;;;;3.63;3.43;;;26.40;67.50;;;;;;5111932;28;20525;-75
2023/09/16 09:08:53;;;;;;;3.93;3.63;;;26.40;67.40;;;;;;5107293;28;20528;-76
2023/09/16 09:11:22;;;;;;;3.63;3.43;;;26.40;67.40;;;;;;5109731;27;20460;-75
2023/09/16 09:13:51;;;;;;;4.30;4.00;;;26.40;67.40;;;;;;5107156;28;20452;-75
2023/09/16 09:16:23;;;;;;;3.63;3.43;;;26.40;67.40;;;;;;5111696;28;20448;-75
2023/09/16 09:18:53;;;;;;;4.17;3.87;;;26.40;67.40;;;;;;5110638;28;20938;-75
2023/09/16 09:21:22;;;;;;;3.53;3.30;;;26.40;67.40;;;;;;5105008;27;20991;-74
2023/09/16 09:23:50;;;;;;;3.67;3.37;;;26.40;67.40;;;;;;5102191;28;20440;-75
2023/09/16 09:26:18;;;;;;;4.07;3.77;;;26.40;67.40;;;;;;5101913;28;20464;-76
2023/09/16 09:28:47;;;;;;;4.00;3.70;;;26.40;67.40;;;;;;5104210;27;20447;-74
2023/09/16 09:31:16;;;;;;;3.60;3.30;;;26.40;67.40;;;;;;5102464;28;20452;-75
2023/09/16 09:33:48;;;;;;;4.87;3.90;;;26.40;67.40;;;;;;5102670;28;20843;-74
2023/09/16 09:36:17;;;;;;;4.27;3.97;;;26.40;67.40;;;;;;5083882;28;20594;-74
2023/09/16 09:38:46;;;;;;;3.40;3.20;;;26.40;67.40;;;;;;5100228;28;21088;-75
2023/09/16 09:41:16;;;;;;;4.17;3.87;;;26.40;67.50;;;;;;5101271;28;20971;-74
2023/09/16 09:43:44;;;;;;;5.20;3.90;;;26.40;67.40;;;;;;5103805;28;20482;-75
2023/09/16 09:46:12;;;;;;;3.80;3.50;;;26.40;67.50;;;;;;5105237;28;20527;-74
2023/09/16 09:48:41;;;;;;;3.73;3.43;;;26.40;67.40;;;;;;5103206;28;20930;-75
2023/09/16 09:51:11;;;;;;;3.67;3.37;;;26.40;67.40;;;;;;5103891;28;20512;-74
2023/09/16 09:53:40;;;;;;;4.00;3.70;;;26.40;67.40;;;;;;5103241;28;20462;-75
2023/09/16 09:56:11;;;;;;;3.47;3.27;;;26.40;67.50;;;;;;5102515;28;20456;-75
2023/09/16 09:58:41;;;;;;;3.87;3.67;;;26.40;67.50;;;;;;5101484;28;20457;-74
2023/09/16 10:01:09;;;;;;;3.87;3.57;;;26.50;67.50;;;;;;5104385;28;20517;-74
2023/09/16 10:03:37;;;;;;;3.83;3.53;;;26.50;67.50;;;;;;5087423;28;20455;-75
2023/09/16 10:06:16;;;;;;;3.73;3.50;;;26.50;67.50;;;;;;5104497;27;20559;-78
2023/09/16 10:08:44;;;;;;;4.07;3.77;;;26.50;67.50;;;;;;5107162;27;20456;-74
2023/09/16 10:11:13;;;;;;;3.53;3.33;;;26.50;67.40;;;;;;5108066;28;20451;-74
2023/09/16 10:13:41;;;;;;;3.60;3.40;;;26.50;67.40;;;;;;5108870;28;20450;-75
2023/09/16 10:16:09;;;;;;;3.70;3.50;;;26.50;67.50;;;;;;5107948;27;20532;-74
2023/09/16 10:18:38;;;;;;;3.70;3.50;;;26.50;67.50;;;;;;5102829;28;20855;-74
2023/09/16 10:21:07;;;;;;;3.70;3.50;;;26.50;67.50;;;;;;5107735;27;20529;-74
2023/09/16 10:23:37;;;;;;;3.43;3.23;;;26.50;67.50;;;;;;5107665;28;20447;-75
2023/09/16 10:26:05;;;;;;;3.90;3.60;;;26.50;67.60;;;;;;5106764;28;20515;-74
2023/09/16 10:28:37;;;;;;;3.30;3.10;;;26.50;67.60;;;;;;5105838;28;20479;-76
2023/09/16 10:31:06;;;;;;;3.40;3.20;;;26.50;67.60;;;;;;5108470;28;20440;-75
2023/09/16 10:33:35;;;;;;;3.90;3.60;;;26.50;67.60;;;;;;5107653;27;20460;-76
2023/09/16 10:36:04;;;;;;;4.00;3.70;;;26.40;67.70;;;;;;5090415;28;20828;-76
2023/09/16 10:38:35;;;;;;;3.60;3.30;;;26.40;67.70;;;;;;5105520;27;20941;-75
2023/09/16 10:41:06;;;;;;;3.93;3.70;;;26.40;67.70;;;;;;5107632;27;20998;-75
2023/09/16 10:43:34;;;;;;;3.43;3.13;;;26.40;67.70;;;;;;5102345;28;20456;-76
2023/09/16 10:46:02;;;;;;;3.37;3.07;;;26.50;67.70;;;;;;5107052;28;20453;-75
2023/09/16 10:48:31;;;;;;;3.17;2.97;;;26.50;67.60;;;;;;5105243;28;20502;-74
2023/09/16 10:51:03;;;;;;;3.10;2.90;;;26.60;67.50;;;;;;5107661;27;20503;-76
2023/09/16 10:53:36;;;;;;;3.37;3.07;;;26.70;67.50;;;;;;5102538;28;20443;-74
2023/09/16 10:56:15;;;;;;;2.90;2.80;;;26.80;67.20;;;;;;5103322;27;20462;-74
2023/09/16 10:58:46;;;;;;;2.53;2.37;;;27.00;66.70;;;;;;5100935;27;20962;-78
2023/09/16 11:01:22;;;;;;;3.80;3.60;;;27.20;66.30;;;;;;5109438;28;20449;-75
2023/09/16 11:03:54;;;;;;;3.90;3.00;;;27.40;65.70;;;;;;5098546;28;20526;-74
2023/09/16 11:06:22;;;;;;;3.30;3.10;;;27.60;65.10;;;;;;5115884;27;20466;-76
2023/09/16 11:08:51;;;;;;;3.33;3.13;;;27.80;64.70;;;;;;5105048;27;20472;-73
2023/09/16 11:11:22;;;;;;;4.10;3.80;;;28.00;64.40;;;;;;5106362;27;20892;-75
2023/09/16 11:13:51;;;;;;;3.40;3.10;;;28.10;64.10;;;;;;5117137;27;20502;-73
2023/09/16 11:16:21;;;;;;;3.00;2.80;;;28.30;63.70;;;;;;5096407;27;20468;-73
2023/09/16 11:18:51;;;;;;;3.63;3.33;;;28.40;63.40;;;;;;5114036;28;20445;-73
2023/09/16 11:21:21;;;;;;;4.27;3.97;;;28.50;63.20;;;;;;5096052;28;20465;-72
2023/09/16 11:23:49;;;;;;;2.87;2.67;;;28.60;63.00;;;;;;5120070;27;20488;-75
2023/09/16 11:26:18;;;;;;;4.10;3.80;;;28.70;62.80;;;;;;5123468;27;20436;-74
2023/09/16 11:28:48;;;;;;;3.30;3.10;;;28.70;62.70;;;;;;5114067;27;20489;-72
2023/09/16 11:31:16;;;;;;;3.37;3.17;;;28.70;62.60;;;;;;5133376;27;20442;-73
2023/09/16 11:33:45;;;;;;;3.77;3.57;;;28.70;62.70;;;;;;5113446;27;21015;-73
2023/09/16 11:36:15;;;;;;;3.40;3.20;;;28.70;62.70;;;;;;5113912;27;20939;-75
2023/09/16 11:38:58;;;;;;;3.57;3.37;;;28.70;62.70;;;;;;5106822;28;20461;-74
2023/09/16 11:41:26;;;;;;;4.17;3.87;;;28.70;62.70;;;;;;5096328;28;20444;-73
2023/09/16 11:43:56;;;;;;;3.13;2.93;;;28.70;62.70;;;;;;5104089;28;20454;-73
2023/09/16 11:46:25;;;;;;;3.23;3.03;;;28.80;62.60;;;;;;5108360;27;20507;-75
2023/09/16 11:48:55;;;;;;;4.00;3.80;;;28.80;62.50;;;;;;5103345;28;20464;-74
2023/09/16 11:51:25;;;;;;;3.10;2.90;;;28.80;62.50;;;;;;5101057;27;20472;-75
2023/09/16 11:53:56;;;;;;;3.53;3.30;;;28.90;62.40;;;;;;5106336;28;21640;-74
2023/09/16 11:56:26;;;;;;;3.23;3.03;;;28.90;62.40;;;;;;5105211;28;20506;-75
2023/09/16 11:58:58;;;;;;;3.67;3.47;;;28.90;62.40;;;;;;5099968;28;20484;-74
2023/09/16 12:01:29;;;;;;;3.13;2.83;;;28.90;62.40;;;;;;5093223;28;20432;-77
2023/09/16 12:03:58;;;;;;;3.50;3.30;;;28.90;62.40;;;;;;5103216;28;20448;-74
2023/09/16 12:06:28;;;;;;;3.33;3.13;;;28.90;62.40;;;;;;5112533;27;20456;-73
2023/09/16 12:08:58;;;;;;;2.90;2.70;;;28.90;62.40;;;;;;5109678;28;20958;-74
2023/09/16 12:11:27;;;;;;;3.40;3.20;;;28.90;62.40;;;;;;5109650;27;20627;-74
2023/09/16 12:13:58;;;;;;;3.97;3.63;;;29.00;62.40;;;;;;5099267;28;20461;-75
2023/09/16 12:16:27;;;;;;;3.83;3.53;;;28.90;62.40;;;;;;5108432;27;20454;-74
2023/09/16 12:18:56;;;;;;;4.10;3.80;;;29.00;62.40;;;;;;5107733;27;20443;-75
2023/09/16 12:21:24;;;;;;;3.10;2.90;;;29.00;62.30;;;;;;5088569;28;21260;-73
2023/09/16 12:23:53;;;;;;;3.43;3.23;;;29.00;62.30;;;;;;5087957;28;20435;-74
2023/09/16 12:26:21;;;;;;;3.37;3.17;;;29.00;62.40;;;;;;5092650;28;20462;-74
2023/09/16 12:28:49;;;;;;;3.60;3.30;;;29.00;62.40;;;;;;5090493;28;20830;-74
2023/09/16 12:31:24;;;;;;;3.70;3.50;;;29.00;62.50;;;;;;5088803;28;20454;-74
2023/09/16 12:33:54;;;;;;;3.30;3.10;;;29.00;62.50;;;;;;5090314;28;20996;-73
2023/09/16 12:36:26;;;;;;;3.90;3.70;;;29.00;62.50;;;;;;5091812;28;20917;-75
2023/09/16 12:38:55;;;;;;;3.73;3.53;;;29.00;62.50;;;;;;5090083;28;20909;-73
2023/09/16 12:41:25;;;;;;;3.70;3.50;;;29.00;62.60;;;;;;5091782;28;20918;-74
2023/09/16 12:43:55;;;;;;;3.07;2.87;;;29.00;62.50;;;;;;5090272;28;20967;-74
2023/09/16 12:46:29;;;;;;;3.33;3.03;;;29.00;62.60;;;;;;5092470;28;20438;-76
2023/09/16 12:48:58;;;;;;;3.30;3.10;;;29.00;62.60;;;;;;5091583;28;20961;-74
2023/09/16 12:51:29;;;;;;;3.60;3.40;;;29.00;62.50;;;;;;5092681;28;20483;-74
2023/09/16 12:53:59;;;;;;;4.30;4.00;;;29.10;62.50;;;;;;5092401;28;20433;-74
2023/09/16 12:56:30;;;;;;;2.70;2.50;;;29.10;62.40;;;;;;5088635;28;20459;-74
2023/09/16 12:59:02;;;;;;;3.60;3.40;;;29.10;62.40;;;;;;5092205;28;20450;-74